sensor_id;sensor_type;location;lat;lon;timestamp;pressure;altitude;pressure_sealevel;temperature;humidity
3444;BME280;1736;52.068;6.968;2023-04-10T00:00:27;101687.16;;;7.79;68.31
3444;BME280;1736;52.068;6.968;2023-04-10T00:02:55;101679.28;;;7.93;68.22
3444;BME280;1736;52.068;6.968;2023-04-10T00:05:21;101671.19;;;7.81;68.80
3444;BME280;1736;52.068;6.968;2023-04-10T00:07:48;101660.47;;;7.84;68.61
3444;BME280;1736;52.068;6.968;2023-04-10T00:10:15;101668.56;;;7.96;67.99
3444;BME280;1736;52.068;6.968;2023-04-10T00:12:41;101672.56;;;7.88;68.14
3444;BME280;1736;52.068;6.968;2023-04-10T00:15:10;101663.56;;;7.76;68.73
3444;BME280;1736;52.068;6.968;2023-04-10T00:17:36;101664.38;;;7.77;68.84
3444;BME280;1736;52.068;6.968;2023-04-10T00:20:03;101656.53;;;7.91;68.21
3444;BME280;1736;52.068;6.968;2023-04-10T00:22:30;101651.25;;;7.91;67.89
3444;BME280;1736;52.068;6.968;2023-04-10T00:24:57;101651.09;;;7.94;67.53
3444;BME280;1736;52.068;6.968;2023-04-10T00:27:23;101648.53;;;7.92;68.23
3444;BME280;1736;52.068;6.968;2023-04-10T00:29:50;101644.53;;;7.85;67.95
3444;BME280;1736;52.068;6.968;2023-04-10T00:32:17;101653.81;;;7.92;67.76
3444;BME280;1736;52.068;6.968;2023-04-10T00:34:44;101642.84;;;7.84;68.08
3444;BME280;1736;52.068;6.968;2023-04-10T00:37:10;101657.00;;;7.83;68.51
3444;BME280;1736;52.068;6.968;2023-04-10T00:39:37;101652.91;;;7.78;68.94
3444;BME280;1736;52.068;6.968;2023-04-10T00:42:03;101653.47;;;7.83;68.64
3444;BME280;1736;52.068;6.968;2023-04-10T00:44:33;101650.50;;;7.73;69.05
3444;BME280;1736;52.068;6.968;2023-04-10T00:47:01;101639.00;;;7.74;68.83
3444;BME280;1736;52.068;6.968;2023-04-10T00:49:30;101632.19;;;7.70;69.32
3444;BME280;1736;52.068;6.968;2023-04-10T00:51:56;101635.19;;;7.64;69.82
3444;BME280;1736;52.068;6.968;2023-04-10T00:54:23;101639.34;;;7.68;69.76
3444;BME280;1736;52.068;6.968;2023-04-10T00:56:50;101629.13;;;7.62;69.74
3444;BME280;1736;52.068;6.968;2023-04-10T00:59:17;101625.78;;;7.74;69.26
3444;BME280;1736;52.068;6.968;2023-04-10T01:01:44;101621.63;;;7.70;69.46
3444;BME280;1736;52.068;6.968;2023-04-10T01:04:11;101619.91;;;7.69;69.77
3444;BME280;1736;52.068;6.968;2023-04-10T01:06:49;101622.63;;;7.68;69.31
3444;BME280;1736;52.068;6.968;2023-04-10T01:09:31;101615.81;;;7.79;69.67
3444;BME280;1736;52.068;6.968;2023-04-10T01:12:11;101625.88;;;7.88;68.59
3444;BME280;1736;52.068;6.968;2023-04-10T01:14:52;101610.34;;;7.82;68.88
3444;BME280;1736;52.068;6.968;2023-04-10T01:17:25;101609.19;;;7.72;69.67
3444;BME280;1736;52.068;6.968;2023-04-10T01:20:01;101599.91;;;7.65;69.67
3444;BME280;1736;52.068;6.968;2023-04-10T01:22:34;101595.41;;;7.67;69.92
3444;BME280;1736;52.068;6.968;2023-04-10T01:25:15;101599.56;;;7.71;69.62
3444;BME280;1736;52.068;6.968;2023-04-10T01:27:51;101609.72;;;7.63;69.74
3444;BME280;1736;52.068;6.968;2023-04-10T01:30:28;101604.69;;;7.59;70.10
3444;BME280;1736;52.068;6.968;2023-04-10T01:32:58;101593.69;;;7.51;70.47
3444;BME280;1736;52.068;6.968;2023-04-10T01:35:26;101603.81;;;7.58;70.31
3444;BME280;1736;52.068;6.968;2023-04-10T01:37:55;101592.94;;;7.49;70.98
3444;BME280;1736;52.068;6.968;2023-04-10T01:40:24;101592.84;;;7.50;71.04
3444;BME280;1736;52.068;6.968;2023-04-10T01:42:54;101588.41;;;7.51;70.90
3444;BME280;1736;52.068;6.968;2023-04-10T01:45:25;101591.31;;;7.46;71.16
3444;BME280;1736;52.068;6.968;2023-04-10T01:47:54;101585.72;;;7.37;71.74
3444;BME280;1736;52.068;6.968;2023-04-10T01:50:21;101590.31;;;7.49;70.76
3444;BME280;1736;52.068;6.968;2023-04-10T01:52:50;101594.88;;;7.45;71.53
3444;BME280;1736;52.068;6.968;2023-04-10T01:55:17;101582.63;;;7.44;71.06
3444;BME280;1736;52.068;6.968;2023-04-10T01:57:45;101587.56;;;7.50;70.86
3444;BME280;1736;52.068;6.968;2023-04-10T02:00:13;101583.38;;;7.46;70.42
3444;BME280;1736;52.068;6.968;2023-04-10T02:02:40;101587.06;;;7.44;71.18
3444;BME280;1736;52.068;6.968;2023-04-10T02:05:09;101579.22;;;7.42;71.25
3444;BME280;1736;52.068;6.968;2023-04-10T02:07:40;101589.72;;;7.28;71.77
3444;BME280;1736;52.068;6.968;2023-04-10T02:10:12;101578.28;;;7.28;71.71
3444;BME280;1736;52.068;6.968;2023-04-10T02:12:42;101575.75;;;7.26;72.23
3444;BME280;1736;52.068;6.968;2023-04-10T02:15:11;101580.69;;;7.17;71.90
3444;BME280;1736;52.068;6.968;2023-04-10T02:17:38;101568.94;;;7.22;72.41
3444;BME280;1736;52.068;6.968;2023-04-10T02:20:08;101574.47;;;7.18;72.22
3444;BME280;1736;52.068;6.968;2023-04-10T02:22:36;101563.06;;;7.17;72.33
3444;BME280;1736;52.068;6.968;2023-04-10T02:25:03;101572.06;;;7.13;72.55
3444;BME280;1736;52.068;6.968;2023-04-10T02:27:32;101573.28;;;7.23;71.95
3444;BME280;1736;52.068;6.968;2023-04-10T02:29:59;101570.06;;;7.18;72.38
3444;BME280;1736;52.068;6.968;2023-04-10T02:32:26;101568.59;;;7.13;72.69
3444;BME280;1736;52.068;6.968;2023-04-10T02:34:53;101569.53;;;7.27;71.65
3444;BME280;1736;52.068;6.968;2023-04-10T02:37:22;101569.75;;;7.38;71.57
3444;BME280;1736;52.068;6.968;2023-04-10T02:39:48;101571.41;;;7.25;71.62
3444;BME280;1736;52.068;6.968;2023-04-10T02:42:15;101570.66;;;7.23;71.43
3444;BME280;1736;52.068;6.968;2023-04-10T02:44:42;101569.34;;;7.15;72.34
3444;BME280;1736;52.068;6.968;2023-04-10T02:47:08;101567.16;;;7.07;72.92
3444;BME280;1736;52.068;6.968;2023-04-10T02:49:35;101566.22;;;7.08;72.64
3444;BME280;1736;52.068;6.968;2023-04-10T02:52:01;101554.69;;;7.09;72.40
3444;BME280;1736;52.068;6.968;2023-04-10T02:54:29;101564.94;;;7.15;71.97
3444;BME280;1736;52.068;6.968;2023-04-10T02:56:57;101553.69;;;7.27;71.40
3444;BME280;1736;52.068;6.968;2023-04-10T02:59:24;101551.16;;;7.10;72.33
3444;BME280;1736;52.068;6.968;2023-04-10T03:01:50;101554.69;;;7.09;71.84
3444;BME280;1736;52.068;6.968;2023-04-10T03:04:17;101538.13;;;7.07;72.29
3444;BME280;1736;52.068;6.968;2023-04-10T03:06:44;101538.38;;;7.18;72.15
3444;BME280;1736;52.068;6.968;2023-04-10T03:09:10;101534.53;;;7.08;72.58
3444;BME280;1736;52.068;6.968;2023-04-10T03:11:38;101537.69;;;6.99;73.01
3444;BME280;1736;52.068;6.968;2023-04-10T03:14:07;101529.78;;;6.99;73.74
3444;BME280;1736;52.068;6.968;2023-04-10T03:16:35;101528.59;;;7.05;72.23
3444;BME280;1736;52.068;6.968;2023-04-10T03:19:01;101528.50;;;7.06;72.82
3444;BME280;1736;52.068;6.968;2023-04-10T03:21:28;101527.22;;;6.98;72.89
3444;BME280;1736;52.068;6.968;2023-04-10T03:23:54;101523.72;;;6.97;73.71
3444;BME280;1736;52.068;6.968;2023-04-10T03:26:21;101525.94;;;6.89;73.63
3444;BME280;1736;52.068;6.968;2023-04-10T03:28:49;101528.00;;;7.00;73.32
3444;BME280;1736;52.068;6.968;2023-04-10T03:31:16;101520.31;;;6.95;73.54
3444;BME280;1736;52.068;6.968;2023-04-10T03:33:43;101518.28;;;7.00;73.04
3444;BME280;1736;52.068;6.968;2023-04-10T03:36:10;101523.91;;;6.94;73.03
3444;BME280;1736;52.068;6.968;2023-04-10T03:38:37;101516.06;;;7.08;72.77
3444;BME280;1736;52.068;6.968;2023-04-10T03:41:04;101524.94;;;6.92;73.22
3444;BME280;1736;52.068;6.968;2023-04-10T03:43:30;101527.13;;;6.99;73.27
3444;BME280;1736;52.068;6.968;2023-04-10T03:45:58;101517.25;;;6.87;73.58
3444;BME280;1736;52.068;6.968;2023-04-10T03:48:26;101516.47;;;6.85;73.15
3444;BME280;1736;52.068;6.968;2023-04-10T03:50:54;101517.41;;;6.84;73.74
3444;BME280;1736;52.068;6.968;2023-04-10T03:53:21;101519.31;;;6.82;74.05
3444;BME280;1736;52.068;6.968;2023-04-10T03:55:47;101518.44;;;6.82;74.05
3444;BME280;1736;52.068;6.968;2023-04-10T03:58:16;101512.06;;;6.70;74.39
3444;BME280;1736;52.068;6.968;2023-04-10T04:00:42;101515.53;;;6.71;74.92
3444;BME280;1736;52.068;6.968;2023-04-10T04:03:10;101514.88;;;6.67;74.86
3444;BME280;1736;52.068;6.968;2023-04-10T04:05:37;101508.91;;;6.64;74.98
3444;BME280;1736;52.068;6.968;2023-04-10T04:08:04;101516.75;;;6.65;74.86
3444;BME280;1736;52.068;6.968;2023-04-10T04:10:31;101511.63;;;6.62;74.98
3444;BME280;1736;52.068;6.968;2023-04-10T04:12:57;101512.72;;;6.58;75.18
3444;BME280;1736;52.068;6.968;2023-04-10T04:15:24;101510.25;;;6.71;75.01
3444;BME280;1736;52.068;6.968;2023-04-10T04:17:50;101507.03;;;6.66;74.64
3444;BME280;1736;52.068;6.968;2023-04-10T04:20:18;101516.03;;;6.77;74.27
3444;BME280;1736;52.068;6.968;2023-04-10T04:22:45;101506.19;;;6.65;74.31
3444;BME280;1736;52.068;6.968;2023-04-10T04:25:12;101513.31;;;6.63;74.30
3444;BME280;1736;52.068;6.968;2023-04-10T04:27:38;101511.28;;;6.68;74.10
3444;BME280;1736;52.068;6.968;2023-04-10T04:30:06;101508.41;;;6.57;74.73
3444;BME280;1736;52.068;6.968;2023-04-10T04:32:33;101512.44;;;6.47;75.13
3444;BME280;1736;52.068;6.968;2023-04-10T04:35:00;101506.69;;;6.56;75.11
3444;BME280;1736;52.068;6.968;2023-04-10T04:37:28;101511.06;;;6.40;75.44
3444;BME280;1736;52.068;6.968;2023-04-10T04:39:54;101507.84;;;6.35;75.56
3444;BME280;1736;52.068;6.968;2023-04-10T04:42:21;101507.84;;;6.35;75.78
3444;BME280;1736;52.068;6.968;2023-04-10T04:44:48;101500.06;;;6.49;75.38
3444;BME280;1736;52.068;6.968;2023-04-10T04:47:15;101506.44;;;6.45;75.29
3444;BME280;1736;52.068;6.968;2023-04-10T04:49:41;101501.53;;;6.38;75.57
3444;BME280;1736;52.068;6.968;2023-04-10T04:52:08;101493.97;;;6.32;76.16
3444;BME280;1736;52.068;6.968;2023-04-10T04:54:42;101494.34;;;6.24;75.89
3444;BME280;1736;52.068;6.968;2023-04-10T04:57:09;101507.00;;;6.35;75.97
3444;BME280;1736;52.068;6.968;2023-04-10T04:59:35;101504.50;;;6.32;76.05
3444;BME280;1736;52.068;6.968;2023-04-10T05:02:02;101495.22;;;6.25;76.10
3444;BME280;1736;52.068;6.968;2023-04-10T05:04:29;101496.63;;;6.32;75.90
3444;BME280;1736;52.068;6.968;2023-04-10T05:06:56;101493.72;;;6.36;75.58
3444;BME280;1736;52.068;6.968;2023-04-10T05:09:22;101495.59;;;6.34;75.55
3444;BME280;1736;52.068;6.968;2023-04-10T05:11:50;101497.50;;;6.48;75.69
3444;BME280;1736;52.068;6.968;2023-04-10T05:14:19;101494.94;;;6.46;74.82
3444;BME280;1736;52.068;6.968;2023-04-10T05:16:45;101496.56;;;6.49;75.19
3444;BME280;1736;52.068;6.968;2023-04-10T05:19:19;101495.44;;;6.53;75.48
3444;BME280;1736;52.068;6.968;2023-04-10T05:21:46;101497.41;;;6.49;74.99
3444;BME280;1736;52.068;6.968;2023-04-10T05:24:12;101493.50;;;6.56;75.00
3444;BME280;1736;52.068;6.968;2023-04-10T05:26:39;101498.28;;;6.65;74.43
3444;BME280;1736;52.068;6.968;2023-04-10T05:29:14;101493.00;;;6.65;74.64
3444;BME280;1736;52.068;6.968;2023-04-10T05:31:41;101494.63;;;6.68;75.00
3444;BME280;1736;52.068;6.968;2023-04-10T05:34:07;101489.88;;;6.74;73.73
3444;BME280;1736;52.068;6.968;2023-04-10T05:36:34;101485.59;;;6.72;74.17
3444;BME280;1736;52.068;6.968;2023-04-10T05:39:00;101485.34;;;6.76;74.47
3444;BME280;1736;52.068;6.968;2023-04-10T05:41:34;101485.59;;;6.87;73.23
3444;BME280;1736;52.068;6.968;2023-04-10T05:44:01;101475.47;;;6.95;73.02
3444;BME280;1736;52.068;6.968;2023-04-10T05:46:29;101482.84;;;7.04;73.00
3444;BME280;1736;52.068;6.968;2023-04-10T05:48:55;101485.75;;;7.15;72.57
3444;BME280;1736;52.068;6.968;2023-04-10T05:51:22;101482.16;;;7.16;72.67
3444;BME280;1736;52.068;6.968;2023-04-10T05:53:49;101481.63;;;7.25;72.45
3444;BME280;1736;52.068;6.968;2023-04-10T05:56:15;101482.19;;;7.46;71.26
3444;BME280;1736;52.068;6.968;2023-04-10T05:58:42;101498.94;;;7.60;70.71
3444;BME280;1736;52.068;6.968;2023-04-10T06:01:08;101489.00;;;7.79;69.64
3444;BME280;1736;52.068;6.968;2023-04-10T06:03:36;101491.97;;;8.03;69.31
3444;BME280;1736;52.068;6.968;2023-04-10T06:06:05;101490.47;;;8.41;67.93
3444;BME280;1736;52.068;6.968;2023-04-10T06:08:32;101483.75;;;8.63;66.71
3444;BME280;1736;52.068;6.968;2023-04-10T06:10:59;101489.75;;;8.93;65.57
3444;BME280;1736;52.068;6.968;2023-04-10T06:13:26;101477.94;;;9.25;64.11
3444;BME280;1736;52.068;6.968;2023-04-10T06:15:52;101473.88;;;9.46;63.32
3444;BME280;1736;52.068;6.968;2023-04-10T06:18:19;101471.88;;;9.62;63.48
3444;BME280;1736;52.068;6.968;2023-04-10T06:20:47;101465.84;;;9.85;62.35
3444;BME280;1736;52.068;6.968;2023-04-10T06:23:13;101463.47;;;10.07;61.81
3444;BME280;1736;52.068;6.968;2023-04-10T06:25:40;101461.34;;;10.25;61.56
3444;BME280;1736;52.068;6.968;2023-04-10T06:28:07;101465.97;;;10.46;60.15
3444;BME280;1736;52.068;6.968;2023-04-10T06:30:33;101451.72;;;10.60;59.37
3444;BME280;1736;52.068;6.968;2023-04-10T06:33:01;101459.44;;;10.76;59.40
3444;BME280;1736;52.068;6.968;2023-04-10T06:35:28;101453.63;;;10.94;57.69
3444;BME280;1736;52.068;6.968;2023-04-10T06:37:55;101459.06;;;10.93;57.80
3444;BME280;1736;52.068;6.968;2023-04-10T06:40:22;101456.53;;;10.91;57.14
3444;BME280;1736;52.068;6.968;2023-04-10T06:42:48;101449.03;;;11.09;57.30
3444;BME280;1736;52.068;6.968;2023-04-10T06:45:15;101449.91;;;11.20;57.19
3444;BME280;1736;52.068;6.968;2023-04-10T06:47:42;101453.13;;;11.36;55.95
3444;BME280;1736;52.068;6.968;2023-04-10T06:50:09;101457.75;;;11.45;56.10
3444;BME280;1736;52.068;6.968;2023-04-10T06:52:35;101459.00;;;11.52;54.77
3444;BME280;1736;52.068;6.968;2023-04-10T06:55:04;101451.31;;;11.60;55.62
3444;BME280;1736;52.068;6.968;2023-04-10T06:57:31;101449.81;;;11.56;54.57
3444;BME280;1736;52.068;6.968;2023-04-10T06:59:57;101450.84;;;11.43;54.97
3444;BME280;1736;52.068;6.968;2023-04-10T07:02:24;101441.19;;;11.42;55.46
3444;BME280;1736;52.068;6.968;2023-04-10T07:04:51;101435.63;;;11.45;54.62
3444;BME280;1736;52.068;6.968;2023-04-10T07:07:17;101433.50;;;11.50;54.15
3444;BME280;1736;52.068;6.968;2023-04-10T07:09:44;101423.81;;;11.49;54.18
3444;BME280;1736;52.068;6.968;2023-04-10T07:12:12;101417.94;;;11.56;54.15
3444;BME280;1736;52.068;6.968;2023-04-10T07:14:39;101426.19;;;11.64;53.89
3444;BME280;1736;52.068;6.968;2023-04-10T07:17:05;101424.88;;;11.70;54.68
3444;BME280;1736;52.068;6.968;2023-04-10T07:19:32;101420.44;;;11.81;52.57
3444;BME280;1736;52.068;6.968;2023-04-10T07:21:59;101409.56;;;11.84;53.41
3444;BME280;1736;52.068;6.968;2023-04-10T07:24:26;101405.81;;;11.87;53.40
3444;BME280;1736;52.068;6.968;2023-04-10T07:26:52;101403.88;;;11.89;54.05
3444;BME280;1736;52.068;6.968;2023-04-10T07:29:23;101395.44;;;11.95;52.80
3444;BME280;1736;52.068;6.968;2023-04-10T07:31:49;101386.81;;;11.69;53.43
3444;BME280;1736;52.068;6.968;2023-04-10T07:34:16;101383.28;;;11.69;53.41
3444;BME280;1736;52.068;6.968;2023-04-10T07:36:43;101378.78;;;11.58;54.12
3444;BME280;1736;52.068;6.968;2023-04-10T07:39:09;101387.81;;;11.56;54.74
3444;BME280;1736;52.068;6.968;2023-04-10T07:41:36;101376.16;;;11.69;54.32
3444;BME280;1736;52.068;6.968;2023-04-10T07:44:02;101376.78;;;11.73;54.48
3444;BME280;1736;52.068;6.968;2023-04-10T07:46:31;101373.53;;;11.91;54.05
3444;BME280;1736;52.068;6.968;2023-04-10T07:48:57;101363.75;;;11.92;53.69
3444;BME280;1736;52.068;6.968;2023-04-10T07:51:24;101354.91;;;11.91;54.65
3444;BME280;1736;52.068;6.968;2023-04-10T07:53:51;101348.13;;;11.87;53.13
3444;BME280;1736;52.068;6.968;2023-04-10T07:56:19;101347.56;;;11.95;52.94
3444;BME280;1736;52.068;6.968;2023-04-10T07:58:46;101332.66;;;12.03;53.48
3444;BME280;1736;52.068;6.968;2023-04-10T08:01:13;101330.13;;;12.02;53.50
3444;BME280;1736;52.068;6.968;2023-04-10T08:03:42;101328.44;;;12.23;52.13
3444;BME280;1736;52.068;6.968;2023-04-10T08:06:10;101321.38;;;12.44;51.68
3444;BME280;1736;52.068;6.968;2023-04-10T08:08:37;101321.03;;;12.69;51.56
3444;BME280;1736;52.068;6.968;2023-04-10T08:11:06;101322.91;;;12.89;49.92
3444;BME280;1736;52.068;6.968;2023-04-10T08:13:33;101324.59;;;13.01;50.67
3444;BME280;1736;52.068;6.968;2023-04-10T08:16:01;101313.53;;;13.26;48.76
3444;BME280;1736;52.068;6.968;2023-04-10T08:18:27;101311.59;;;13.48;47.95
3444;BME280;1736;52.068;6.968;2023-04-10T08:20:55;101308.72;;;13.40;47.91
3444;BME280;1736;52.068;6.968;2023-04-10T08:23:22;101299.28;;;13.57;48.02
3444;BME280;1736;52.068;6.968;2023-04-10T08:25:48;101291.78;;;13.71;47.64
3444;BME280;1736;52.068;6.968;2023-04-10T08:28:15;101291.03;;;13.90;47.60
3444;BME280;1736;52.068;6.968;2023-04-10T08:30:41;101287.41;;;14.00;47.70
3444;BME280;1736;52.068;6.968;2023-04-10T08:33:08;101278.19;;;14.14;47.43
3444;BME280;1736;52.068;6.968;2023-04-10T08:35:34;101279.78;;;14.26;46.87
3444;BME280;1736;52.068;6.968;2023-04-10T08:38:02;101280.22;;;14.31;46.78
3444;BME280;1736;52.068;6.968;2023-04-10T08:40:29;101264.88;;;14.33;46.16
3444;BME280;1736;52.068;6.968;2023-04-10T08:42:55;101257.16;;;14.49;44.91
3444;BME280;1736;52.068;6.968;2023-04-10T08:45:22;101272.38;;;14.48;45.68
3444;BME280;1736;52.068;6.968;2023-04-10T08:47:49;101263.66;;;14.65;45.80
3444;BME280;1736;52.068;6.968;2023-04-10T08:50:16;101253.94;;;14.74;45.72
3444;BME280;1736;52.068;6.968;2023-04-10T08:52:44;101260.56;;;14.89;45.40
3444;BME280;1736;52.068;6.968;2023-04-10T08:55:13;101259.13;;;15.04;44.75
3444;BME280;1736;52.068;6.968;2023-04-10T08:57:40;101251.81;;;15.06;44.33
3444;BME280;1736;52.068;6.968;2023-04-10T09:00:08;101245.91;;;15.02;44.38
3444;BME280;1736;52.068;6.968;2023-04-10T09:02:37;101245.06;;;15.02;44.61
3444;BME280;1736;52.068;6.968;2023-04-10T09:05:05;101240.03;;;14.99;45.17
3444;BME280;1736;52.068;6.968;2023-04-10T09:07:35;101242.50;;;15.10;45.29
3444;BME280;1736;52.068;6.968;2023-04-10T09:10:02;101243.38;;;15.10;45.33
3444;BME280;1736;52.068;6.968;2023-04-10T09:12:42;101243.63;;;15.17;45.62
3444;BME280;1736;52.068;6.968;2023-04-10T09:15:09;101245.31;;;15.08;46.16
3444;BME280;1736;52.068;6.968;2023-04-10T09:17:35;101250.72;;;14.99;44.35
3444;BME280;1736;52.068;6.968;2023-04-10T09:20:02;101252.06;;;15.12;43.70
3444;BME280;1736;52.068;6.968;2023-04-10T09:22:45;101249.25;;;15.23;43.17
3444;BME280;1736;52.068;6.968;2023-04-10T09:25:28;101244.50;;;15.17;43.31
3444;BME280;1736;52.068;6.968;2023-04-10T09:28:00;101254.44;;;15.44;43.37
3444;BME280;1736;52.068;6.968;2023-04-10T09:30:35;101246.03;;;15.66;42.61
3444;BME280;1736;52.068;6.968;2023-04-10T09:33:20;101246.25;;;15.82;41.90
3444;BME280;1736;52.068;6.968;2023-04-10T09:35:47;101230.19;;;15.82;41.54
3444;BME280;1736;52.068;6.968;2023-04-10T09:38:15;101223.31;;;15.80;41.49
3444;BME280;1736;52.068;6.968;2023-04-10T09:40:42;101221.47;;;15.80;41.57
3444;BME280;1736;52.068;6.968;2023-04-10T09:43:21;101212.66;;;15.97;41.50
3444;BME280;1736;52.068;6.968;2023-04-10T09:45:49;101212.44;;;16.08;41.73
3444;BME280;1736;52.068;6.968;2023-04-10T09:48:17;101210.25;;;16.21;41.25
3444;BME280;1736;52.068;6.968;2023-04-10T09:50:44;101213.91;;;16.20;41.23
3444;BME280;1736;52.068;6.968;2023-04-10T09:53:12;101209.25;;;16.22;41.61
3444;BME280;1736;52.068;6.968;2023-04-10T09:55:40;101212.88;;;16.48;41.69
3444;BME280;1736;52.068;6.968;2023-04-10T09:58:07;101208.28;;;16.58;40.71
3444;BME280;1736;52.068;6.968;2023-04-10T10:00:40;101194.03;;;16.58;40.76
3444;BME280;1736;52.068;6.968;2023-04-10T10:03:09;101188.47;;;16.69;41.02
3444;BME280;1736;52.068;6.968;2023-04-10T10:05:38;101203.47;;;16.62;41.07
3444;BME280;1736;52.068;6.968;2023-04-10T10:08:06;101183.94;;;16.95;40.73
3444;BME280;1736;52.068;6.968;2023-04-10T10:10:33;101187.00;;;17.00;39.52
3444;BME280;1736;52.068;6.968;2023-04-10T10:13:01;101172.97;;;17.06;39.77
3444;BME280;1736;52.068;6.968;2023-04-10T10:15:34;101174.19;;;17.11;39.72
3444;BME280;1736;52.068;6.968;2023-04-10T10:18:24;101163.50;;;17.19;40.73
3444;BME280;1736;52.068;6.968;2023-04-10T10:20:52;101166.25;;;17.27;41.18
3444;BME280;1736;52.068;6.968;2023-04-10T10:23:20;101160.88;;;17.02;41.18
3444;BME280;1736;52.068;6.968;2023-04-10T10:25:48;101154.38;;;16.61;41.42
3444;BME280;1736;52.068;6.968;2023-04-10T10:28:17;101159.13;;;16.67;41.45
3444;BME280;1736;52.068;6.968;2023-04-10T10:30:44;101144.22;;;16.90;41.28
3444;BME280;1736;52.068;6.968;2023-04-10T10:33:13;101144.03;;;16.92;40.51
3444;BME280;1736;52.068;6.968;2023-04-10T10:35:40;101130.13;;;16.88;40.48
3444;BME280;1736;52.068;6.968;2023-04-10T10:38:07;101131.75;;;16.81;40.96
3444;BME280;1736;52.068;6.968;2023-04-10T10:40:40;101123.81;;;16.97;41.34
3444;BME280;1736;52.068;6.968;2023-04-10T10:43:11;101122.84;;;17.06;40.68
3444;BME280;1736;52.068;6.968;2023-04-10T10:45:45;101115.59;;;17.24;40.21
3444;BME280;1736;52.068;6.968;2023-04-10T10:48:16;101099.88;;;17.37;41.55
3444;BME280;1736;52.068;6.968;2023-04-10T10:50:53;101091.75;;;17.55;40.98
3444;BME280;1736;52.068;6.968;2023-04-10T10:53:36;101097.31;;;17.61;39.84
3444;BME280;1736;52.068;6.968;2023-04-10T10:56:32;101082.28;;;17.76;40.24
3444;BME280;1736;52.068;6.968;2023-04-10T10:58:59;101075.31;;;17.50;39.67
3444;BME280;1736;52.068;6.968;2023-04-10T11:01:26;101084.06;;;17.60;39.74
3444;BME280;1736;52.068;6.968;2023-04-10T11:03:54;101079.13;;;17.39;39.78
3444;BME280;1736;52.068;6.968;2023-04-10T11:06:47;101075.19;;;17.75;39.42
3444;BME280;1736;52.068;6.968;2023-04-10T11:12:11;101072.50;;;17.75;39.09
3444;BME280;1736;52.068;6.968;2023-04-10T11:14:38;101061.97;;;18.06;39.37
3444;BME280;1736;52.068;6.968;2023-04-10T11:17:06;101059.63;;;17.87;39.96
3444;BME280;1736;52.068;6.968;2023-04-10T11:25:47;101047.88;;;17.96;39.11
3444;BME280;1736;52.068;6.968;2023-04-10T11:28:36;101051.56;;;17.87;38.74
3444;BME280;1736;52.068;6.968;2023-04-10T11:31:16;101044.69;;;17.84;39.81
3444;BME280;1736;52.068;6.968;2023-04-10T11:33:44;101048.03;;;17.86;39.02
3444;BME280;1736;52.068;6.968;2023-04-10T11:36:13;101041.47;;;17.73;38.93
3444;BME280;1736;52.068;6.968;2023-04-10T11:38:40;101039.31;;;17.84;39.20
3444;BME280;1736;52.068;6.968;2023-04-10T11:41:07;101040.16;;;17.85;38.96
3444;BME280;1736;52.068;6.968;2023-04-10T11:43:34;101022.69;;;17.81;39.54
3444;BME280;1736;52.068;6.968;2023-04-10T11:46:02;101022.53;;;17.90;39.16
3444;BME280;1736;52.068;6.968;2023-04-10T11:48:29;101017.69;;;17.94;39.09
3444;BME280;1736;52.068;6.968;2023-04-10T11:50:56;101004.59;;;17.99;38.45
3444;BME280;1736;52.068;6.968;2023-04-10T11:53:24;101006.09;;;17.93;39.52
3444;BME280;1736;52.068;6.968;2023-04-10T11:55:51;101007.13;;;18.16;39.40
3444;BME280;1736;52.068;6.968;2023-04-10T11:58:23;101012.13;;;18.35;39.54
3444;BME280;1736;52.068;6.968;2023-04-10T12:00:57;100998.84;;;18.26;38.32
3444;BME280;1736;52.068;6.968;2023-04-10T12:03:40;101000.56;;;18.19;37.47
3444;BME280;1736;52.068;6.968;2023-04-10T12:06:09;100986.28;;;18.18;38.51
3444;BME280;1736;52.068;6.968;2023-04-10T12:08:37;100987.59;;;18.30;38.57
3444;BME280;1736;52.068;6.968;2023-04-10T12:11:04;100977.53;;;18.40;37.14
3444;BME280;1736;52.068;6.968;2023-04-10T12:13:32;100989.44;;;18.22;37.70
3444;BME280;1736;52.068;6.968;2023-04-10T12:16:00;100979.56;;;18.22;37.71
3444;BME280;1736;52.068;6.968;2023-04-10T12:18:28;100979.22;;;18.25;37.75
3444;BME280;1736;52.068;6.968;2023-04-10T12:20:55;100980.56;;;18.29;37.62
3444;BME280;1736;52.068;6.968;2023-04-10T12:23:23;100969.31;;;18.02;36.88
3444;BME280;1736;52.068;6.968;2023-04-10T12:25:50;100973.00;;;18.25;37.63
3444;BME280;1736;52.068;6.968;2023-04-10T12:28:18;100969.44;;;18.32;37.05
3444;BME280;1736;52.068;6.968;2023-04-10T12:30:47;100970.47;;;18.47;36.67
3444;BME280;1736;52.068;6.968;2023-04-10T12:33:19;100963.41;;;18.54;36.36
3444;BME280;1736;52.068;6.968;2023-04-10T12:35:46;100957.38;;;18.44;36.37
3444;BME280;1736;52.068;6.968;2023-04-10T12:38:13;100944.28;;;18.33;36.76
3444;BME280;1736;52.068;6.968;2023-04-10T12:40:57;100939.25;;;18.46;37.65
3444;BME280;1736;52.068;6.968;2023-04-10T12:43:31;100924.78;;;18.47;36.65
3444;BME280;1736;52.068;6.968;2023-04-10T12:46:00;100926.00;;;18.37;36.08
3444;BME280;1736;52.068;6.968;2023-04-10T12:48:27;100924.00;;;18.23;36.29
3444;BME280;1736;52.068;6.968;2023-04-10T12:50:54;100919.84;;;18.04;35.77
3444;BME280;1736;52.068;6.968;2023-04-10T12:53:20;100914.09;;;18.07;35.40
3444;BME280;1736;52.068;6.968;2023-04-10T12:56:02;100913.63;;;18.04;34.95
3444;BME280;1736;52.068;6.968;2023-04-10T12:58:29;100925.72;;;18.00;35.69
3444;BME280;1736;52.068;6.968;2023-04-10T13:00:58;100923.50;;;18.11;35.55
3444;BME280;1736;52.068;6.968;2023-04-10T13:03:26;100903.00;;;18.18;35.22
3444;BME280;1736;52.068;6.968;2023-04-10T13:05:53;100908.41;;;18.02;35.23
3444;BME280;1736;52.068;6.968;2023-04-10T13:08:20;100904.03;;;18.09;35.63
3444;BME280;1736;52.068;6.968;2023-04-10T13:10:47;100894.28;;;18.24;34.17
3444;BME280;1736;52.068;6.968;2023-04-10T13:13:14;100890.25;;;18.20;34.96
3444;BME280;1736;52.068;6.968;2023-04-10T13:15:41;100891.94;;;18.21;34.68
3444;BME280;1736;52.068;6.968;2023-04-10T13:18:08;100894.63;;;18.13;34.73
3444;BME280;1736;52.068;6.968;2023-04-10T13:20:37;100886.75;;;18.04;34.87
3444;BME280;1736;52.068;6.968;2023-04-10T13:23:04;100883.38;;;18.10;34.87
3444;BME280;1736;52.068;6.968;2023-04-10T13:25:32;100878.22;;;18.00;35.18
3444;BME280;1736;52.068;6.968;2023-04-10T13:27:59;100879.34;;;18.14;35.45
3444;BME280;1736;52.068;6.968;2023-04-10T13:30:26;100858.66;;;18.30;35.99